Time;durP1;ratioP1;P1;durP2;ratioP2;P2;SDS_P1;SDS_P2;PMS_P1;PMS_P2;Temp;Humidity;BMP_temperature;BMP_pressure;BME280_temperature;BME280_humidity;BME280_pressure;Samples;Min_cycle;Max_cycle;Signal;HPM_P1;HPM_P2
2023/02/27 00:01:44;;;;;;;4.90;2.40;;;;;;;16.10;41.16;100218.94;5074654;28;20076;-67
2023/02/27 00:04:15;;;;;;;5.30;2.30;;;;;;;16.06;41.30;100215.66;5074599;28;20059;-68
2023/02/27 00:06:43;;;;;;;4.47;2.50;;;;;;;16.04;41.26;100225.69;5074540;28;20044;-67
2023/02/27 00:09:11;;;;;;;4.65;2.60;;;;;;;16.00;41.29;100230.44;5074755;28;20052;-67
2023/02/27 00:11:39;;;;;;;5.20;2.60;;;;;;;15.96;41.28;100237.09;5074530;28;20044;-68
2023/02/27 00:14:09;;;;;;;4.63;2.38;;;;;;;15.95;41.20;100238.06;5074435;28;20040;-68
2023/02/27 00:16:37;;;;;;;4.45;2.25;;;;;;;15.92;41.11;100242.81;5074332;28;20051;-68
2023/02/27 00:19:06;;;;;;;4.10;2.30;;;;;;;15.89;41.20;100240.41;5073453;28;20962;-68
2023/02/27 00:21:35;;;;;;;4.60;2.40;;;;;;;15.84;41.33;100238.09;5074398;28;20076;-68
2023/02/27 00:24:04;;;;;;;4.57;2.30;;;;;;;15.83;41.13;100244.47;5074391;28;20485;-68
2023/02/27 00:26:32;;;;;;;4.30;2.30;;;;;;;15.80;41.23;100243.84;5074248;28;20050;-68
2023/02/27 00:29:00;;;;;;;4.30;2.50;;;;;;;15.77;41.58;100253.03;5074292;28;20040;-68
2023/02/27 00:31:30;;;;;;;5.10;2.80;;;;;;;15.75;41.22;100255.00;5074057;28;20481;-68
2023/02/27 00:33:59;;;;;;;4.25;2.60;;;;;;;15.71;41.26;100261.59;5074179;28;20056;-67
2023/02/27 00:36:27;;;;;;;4.95;2.72;;;;;;;15.69;41.22;100258.16;5074052;28;20249;-67
2023/02/27 00:38:55;;;;;;;4.50;2.53;;;;;;;15.65;41.10;100260.25;5073886;28;20056;-67
2023/02/27 00:41:26;;;;;;;4.47;2.30;;;;;;;15.63;41.03;100258.66;5074035;28;20054;-67
2023/02/27 00:43:55;;;;;;;4.30;2.50;;;;;;;15.61;41.04;100263.31;5074144;28;20551;-67
2023/02/27 00:46:23;;;;;;;4.78;2.28;;;;;;;15.58;40.91;100264.38;5074197;28;20044;-67
2023/02/27 00:48:53;;;;;;;5.03;2.60;;;;;;;15.54;40.92;100256.69;5073932;28;20071;-67
2023/02/27 00:51:21;;;;;;;4.60;2.33;;;;;;;15.51;40.96;100268.53;5073897;28;20044;-68
2023/02/27 00:53:49;;;;;;;4.57;2.40;;;;;;;15.50;40.84;100271.34;5073949;28;20051;-67
2023/02/27 00:56:18;;;;;;;4.40;2.40;;;;;;;15.46;40.68;100274.31;5073742;28;20067;-68
2023/02/27 00:58:46;;;;;;;4.82;2.22;;;;;;;15.44;40.74;100278.94;5073866;28;20400;-68
2023/02/27 01:01:14;;;;;;;4.50;2.60;;;;;;;15.42;40.98;100283.56;5073657;28;20047;-67
2023/02/27 01:03:42;;;;;;;4.25;2.20;;;;;;;15.38;40.81;100284.81;5073612;28;20047;-68
2023/02/27 01:06:12;;;;;;;4.95;2.50;;;;;;;15.37;40.55;100287.63;5073463;28;20049;-67
2023/02/27 01:08:40;;;;;;;5.00;2.45;;;;;;;15.35;40.74;100282.38;5073536;28;20404;-67
2023/02/27 01:11:08;;;;;;;4.05;2.25;;;;;;;15.33;40.59;100292.34;5073398;28;20055;-67
2023/02/27 01:13:36;;;;;;;4.53;2.38;;;;;;;15.30;40.80;100284.56;5073395;28;20040;-67
2023/02/27 01:16:07;;;;;;;3.63;2.40;;;;;;;15.26;40.50;100285.78;5073395;28;20606;-67
2023/02/27 01:18:35;;;;;;;4.28;2.22;;;;;;;15.26;40.64;100284.94;5073605;28;20045;-67
2023/02/27 01:21:04;;;;;;;5.10;2.58;;;;;;;15.23;40.63;100296.75;5073415;28;20136;-68
2023/02/27 01:23:33;;;;;;;3.38;2.03;;;;;;;15.18;40.74;100293.59;5073282;28;20123;-67
2023/02/27 01:26:01;;;;;;;4.45;2.40;;;;;;;15.17;40.66;100292.75;5073155;28;20064;-68
2023/02/27 01:28:30;;;;;;;4.28;2.35;;;;;;;15.14;40.67;100297.47;5073173;28;20401;-68
2023/02/27 01:30:58;;;;;;;5.07;2.35;;;;;;;15.13;40.64;100296.63;5072894;28;20036;-68
2023/02/27 01:33:26;;;;;;;3.83;2.13;;;;;;;15.10;40.71;100290.66;5073059;28;20048;-67
2023/02/27 01:35:55;;;;;;;4.90;2.47;;;;;;;15.09;40.79;100302.38;5073005;28;20052;-68
2023/02/27 01:38:23;;;;;;;4.22;2.47;;;;;;;15.05;40.75;100298.19;5072724;28;20130;-68
2023/02/27 01:40:53;;;;;;;3.85;2.22;;;;;;;15.04;40.73;100299.16;5072868;28;20044;-68
2023/02/27 01:43:22;;;;;;;4.13;2.17;;;;;;;15.01;40.67;100294.91;5072921;28;20073;-68
2023/02/27 01:45:50;;;;;;;4.25;2.20;;;;;;;15.01;40.64;100299.41;5072766;28;20424;-67
2023/02/27 01:48:22;;;;;;;4.38;2.45;;;;;;;14.98;40.75;100303.22;5072625;28;20048;-67
2023/02/27 01:50:54;;;;;;;3.50;2.00;;;;;;;14.96;40.67;100296.22;5072705;28;20110;-67
2023/02/27 01:53:24;;;;;;;4.28;2.33;;;;;;;14.91;40.83;100293.06;5072559;28;20123;-67
2023/02/27 01:55:58;;;;;;;4.55;2.40;;;;;;;14.92;40.74;100297.44;5072527;28;20048;-67
2023/02/27 01:58:27;;;;;;;3.88;2.25;;;;;;;14.88;40.77;100291.47;5072595;28;20041;-67
2023/02/27 02:00:55;;;;;;;3.90;2.20;;;;;;;14.87;40.71;100301.34;5072412;28;20127;-67
2023/02/27 02:03:33;;;;;;;3.80;2.40;;;;;;;14.82;40.87;100300.84;5072368;28;20041;-67
2023/02/27 02:06:04;;;;;;;4.32;2.25;;;;;;;14.82;40.61;100306.22;5072389;28;20044;-67
2023/02/27 02:08:36;;;;;;;4.05;2.33;;;;;;;14.79;40.64;100306.47;5072231;28;20043;-67
2023/02/27 02:11:07;;;;;;;4.60;2.15;;;;;;;14.78;40.60;100310.13;5072214;28;20520;-67
2023/02/27 02:13:38;;;;;;;4.57;2.35;;;;;;;14.73;40.51;100309.59;5072217;28;20044;-67
2023/02/27 02:16:21;;;;;;;3.70;2.10;;;;;;;14.75;40.66;100326.44;5072252;28;20080;-67
2023/02/27 02:18:57;;;;;;;5.35;2.22;;;;;;;14.74;40.70;100332.78;5072256;28;20481;-67
2023/02/27 02:22:06;;;;;;;3.92;2.10;;;;;;;14.68;40.82;100322.53;5072068;28;20055;-67
2023/02/27 02:25:07;;;;;;;4.05;2.17;;;;;;;14.68;40.70;100341.31;5072115;28;20044;-66
2023/02/27 02:27:52;;;;;;;5.20;2.08;;;;;;;14.66;40.67;100345.94;5072164;28;20052;-67
2023/02/27 02:30:57;;;;;;;3.63;1.90;;;;;;;14.64;40.62;100347.03;5072097;28;20386;-68
2023/02/27 02:33:45;;;;;;;4.32;2.47;;;;;;;14.61;40.75;100348.13;5071970;28;20044;-67
2023/02/27 02:37:04;;;;;;;4.05;2.20;;;;;;;14.59;40.89;100345.56;5072067;28;20048;-66
2023/02/27 02:39:58;;;;;;;3.50;2.00;;;;;;;14.57;40.83;100349.31;5072005;28;20040;-66
2023/02/27 02:42:34;;;;;;;4.25;2.15;;;;;;;14.56;40.61;100350.28;5044681;28;20516;-67
2023/02/27 02:45:13;;;;;;;3.38;1.98;;;;;;;14.55;40.79;100353.94;5072533;28;20048;-66
2023/02/27 02:47:51;;;;;;;4.55;2.60;;;;;;;14.51;40.83;100344.41;5071941;28;20044;-68
2023/02/27 02:50:26;;;;;;;4.00;1.88;;;;;;;14.51;40.87;100357.84;5079720;28;20044;-66
2023/02/27 02:53:08;;;;;;;4.47;2.30;;;;;;;14.50;40.80;100356.97;5082652;28;20070;-67
2023/02/27 02:55:42;;;;;;;5.07;2.30;;;;;;;14.46;40.84;100355.47;5082450;28;20075;-67
2023/02/27 02:58:19;;;;;;;3.85;1.80;;;;;;;14.45;40.67;100358.28;5076632;28;20048;-67
2023/02/27 03:00:54;;;;;;;3.47;1.95;;;;;;;14.46;40.94;100362.69;5076214;28;20405;-68
2023/02/27 03:03:26;;;;;;;3.55;2.22;;;;;;;14.44;40.70;100361.91;5082061;28;20062;-69
2023/02/27 03:06:02;;;;;;;4.07;2.00;;;;;;;14.42;40.75;100363.84;5085259;28;20101;-67
2023/02/27 03:08:36;;;;;;;4.00;2.15;;;;;;;14.37;40.77;100355.28;5074579;28;20056;-67
2023/02/27 03:11:07;;;;;;;4.05;2.15;;;;;;;14.39;40.58;100364.09;5071565;28;20067;-67
2023/02/27 03:13:39;;;;;;;5.53;2.08;;;;;;;14.38;40.80;100367.72;5071572;28;20485;-67
2023/02/27 03:16:13;;;;;;;3.72;1.95;;;;;;;14.38;40.64;100370.41;5071543;28;20048;-66
2023/02/27 03:18:46;;;;;;;4.85;2.53;;;;;;;14.32;40.51;100369.91;5071389;28;20122;-66
2023/02/27 03:21:22;;;;;;;4.22;1.95;;;;;;;14.32;40.74;100375.28;5071675;28;20049;-67
2023/02/27 03:23:56;;;;;;;3.33;1.77;;;;;;;14.30;40.52;100376.38;5071723;28;20068;-67
2023/02/27 03:26:33;;;;;;;4.15;2.30;;;;;;;14.27;40.67;100382.78;5071564;28;20575;-68
2023/02/27 03:29:06;;;;;;;3.90;2.22;;;;;;;14.28;40.71;100386.31;5071313;28;20135;-68
2023/02/27 03:31:41;;;;;;;4.22;2.15;;;;;;;14.26;40.64;100386.44;5071423;28;20465;-68
2023/02/27 03:34:17;;;;;;;4.28;2.05;;;;;;;14.24;40.71;100383.03;5071546;28;20090;-68
2023/02/27 03:36:49;;;;;;;4.85;2.05;;;;;;;14.23;40.66;100384.00;5071311;28;20044;-68
2023/02/27 03:39:27;;;;;;;3.92;2.15;;;;;;;14.21;40.79;100387.78;5071241;28;20067;-68
2023/02/27 03:42:06;;;;;;;4.05;2.10;;;;;;;14.20;40.73;100394.09;5071377;28;20052;-68
2023/02/27 03:44:43;;;;;;;3.28;1.98;;;;;;;14.19;40.68;100395.06;5071497;28;20048;-67
2023/02/27 03:47:11;;;;;;;4.03;2.25;;;;;;;14.17;40.48;100397.84;5071165;28;20040;-67
2023/02/27 03:49:40;;;;;;;3.78;2.05;;;;;;;14.15;40.65;100394.44;5071603;28;20124;-67
2023/02/27 03:52:08;;;;;;;3.53;2.03;;;;;;;14.13;40.78;100401.72;5072345;28;20049;-67
2023/02/27 03:54:43;;;;;;;3.67;2.15;;;;;;;14.12;40.87;100404.53;5076209;28;20048;-68
2023/02/27 03:57:14;;;;;;;3.53;2.20;;;;;;;14.09;40.82;100400.25;5074941;28;20041;-67
2023/02/27 03:59:43;;;;;;;3.38;1.90;;;;;;;14.08;40.69;100406.56;5074784;28;20072;-67
2023/02/27 04:02:11;;;;;;;4.22;2.13;;;;;;;14.09;40.91;100412.78;5074781;28;20044;-66
2023/02/27 04:04:39;;;;;;;3.17;1.70;;;;;;;14.04;40.64;100403.25;5074609;28;20072;-67
2023/02/27 04:07:23;;;;;;;4.20;2.15;;;;;;;14.06;40.91;100416.53;5074791;28;20076;-67
2023/02/27 04:10:07;;;;;;;3.47;1.95;;;;;;;14.04;40.68;100418.50;5074530;28;20072;-67
2023/02/27 04:12:56;;;;;;;3.95;1.95;;;;;;;14.03;40.87;100409.59;5074472;28;20048;-67
2023/02/27 04:15:33;;;;;;;3.65;2.00;;;;;;;13.98;40.78;100402.81;5074466;28;20049;-67
2023/02/27 04:18:15;;;;;;;4.18;1.90;;;;;;;14.01;40.88;100413.34;5074526;28;20049;-67
2023/02/27 04:20:48;;;;;;;3.65;1.90;;;;;;;13.98;40.93;100414.41;5074412;28;20511;-68
2023/02/27 04:23:21;;;;;;;3.53;1.88;;;;;;;13.96;40.80;100412.81;5074294;28;20102;-68
2023/02/27 04:26:07;;;;;;;3.28;1.98;;;;;;;13.97;40.94;100417.19;5074663;28;20074;-67
2023/02/27 04:28:44;;;;;;;3.35;1.88;;;;;;;13.95;40.82;100419.16;5074377;28;20048;-67
2023/02/27 04:31:19;;;;;;;2.90;1.70;;;;;;;13.93;40.84;100419.25;5074437;28;20048;-68
2023/02/27 04:33:54;;;;;;;3.67;1.98;;;;;;;13.90;40.88;100414.13;5074120;28;20495;-68
2023/02/27 04:36:31;;;;;;;3.15;1.80;;;;;;;13.90;40.88;100422.16;5074258;28;20051;-68
2023/02/27 04:39:05;;;;;;;4.03;2.00;;;;;;;13.92;41.02;100428.28;5073942;28;20056;-67
2023/02/27 04:41:36;;;;;;;;;;;;;;;13.95;41.33;100430.72;5074640;28;20048;-67
2023/02/27 04:44:08;;;;;;;3.45;1.88;;;;;;;14.02;41.50;100433.84;5074081;28;20360;-68
2023/02/27 04:46:39;;;;;;;3.58;1.95;;;;;;;14.10;41.53;100436.84;5074042;28;20052;-68
2023/02/27 04:49:13;;;;;;;4.03;1.90;;;;;;;14.20;41.69;100437.88;5074065;28;20071;-68
2023/02/27 04:51:50;;;;;;;4.53;1.90;;;;;;;14.29;41.51;100437.22;5073960;28;20045;-68
2023/02/27 04:54:24;;;;;;;3.67;1.70;;;;;;;14.41;41.40;100439.97;5073819;28;20083;-68
2023/02/27 04:56:55;;;;;;;3.15;1.92;;;;;;;14.49;41.32;100441.16;5073811;28;20498;-68
2023/02/27 04:59:28;;;;;;;3.78;2.10;;;;;;;14.59;41.21;100444.88;5073710;28;20501;-68
2023/02/27 05:01:59;;;;;;;3.00;1.65;;;;;;;14.71;41.08;100450.31;5073730;28;20045;-68
2023/02/27 05:04:33;;;;;;;3.72;1.80;;;;;;;14.82;40.80;100445.84;5073157;28;20056;-68
2023/02/27 05:07:01;;;;;;;;;;;;;;;14.94;40.75;100443.22;5074012;28;20045;-67
2023/02/27 05:09:36;;;;;;;3.40;1.58;;;;;;;15.05;40.54;100451.31;5073464;28;19924;-67
2023/02/27 05:12:12;;;;;;;3.08;1.90;;;;;;;15.13;40.57;100456.97;5073620;28;20036;-67
2023/02/27 05:14:45;;;;;;;3.33;1.90;;;;;;;15.25;40.46;100456.06;5073377;28;20056;-68
2023/02/27 05:17:18;;;;;;;3.65;1.67;;;;;;;15.34;40.36;100468.75;5073074;28;20040;-67
2023/02/27 05:19:47;;;;;;;;;;;;;;;15.48;40.11;100481.16;5073782;28;20041;-68
2023/02/27 05:22:24;;;;;;;3.13;1.70;;;;;;;15.59;39.95;100469.56;5073406;28;19934;-68
2023/02/27 05:24:59;;;;;;;3.50;1.80;;;;;;;15.68;39.91;100469.75;5073251;28;20045;-68
2023/02/27 05:27:38;;;;;;;3.75;1.95;;;;;;;15.81;39.82;100472.31;5073224;28;20049;-68
2023/02/27 05:30:14;;;;;;;3.28;1.83;;;;;;;15.91;39.56;100469.75;5072980;28;20049;-68
2023/02/27 05:32:51;;;;;;;3.30;1.80;;;;;;;16.02;39.43;100477.88;5073296;28;20055;-67
2023/02/27 05:35:24;;;;;;;3.50;1.95;;;;;;;16.11;39.42;100493.25;5073071;28;20673;-67
2023/02/27 05:38:04;;;;;;;3.25;1.80;;;;;;;16.18;39.30;100494.47;5072906;28;20429;-66
2023/02/27 05:40:37;;;;;;;3.30;1.58;;;;;;;16.24;39.06;100494.00;5072679;28;20072;-68
2023/02/27 05:43:10;;;;;;;3.50;1.70;;;;;;;16.28;39.05;100497.28;5072755;28;20418;-67
2023/02/27 05:45:42;;;;;;;4.18;2.00;;;;;;;16.31;38.94;100491.69;5072954;28;20101;-66
2023/02/27 05:48:15;;;;;;;3.45;1.80;;;;;;;16.33;39.04;100508.56;5072614;28;20048;-67
2023/02/27 05:50:49;;;;;;;2.95;1.88;;;;;;;16.33;38.95;100508.56;5072666;28;20455;-67
2023/02/27 05:53:21;;;;;;;3.50;1.83;;;;;;;16.31;39.00;100508.69;5072282;28;20074;-67
2023/02/27 05:55:51;;;;;;;2.38;1.52;;;;;;;16.28;39.09;100506.22;5072424;28;20072;-67
2023/02/27 05:58:23;;;;;;;3.97;1.85;;;;;;;16.27;39.09;100503.66;5072515;28;20096;-67
2023/02/27 06:00:58;;;;;;;3.73;1.90;;;;;;;16.23;38.98;100512.97;5072509;28;20101;-66
2023/02/27 06:03:28;;;;;;;3.50;1.90;;;;;;;16.20;38.94;100518.59;5072367;28;20281;-66
2023/02/27 06:05:59;;;;;;;3.28;1.80;;;;;;;16.18;39.00;100525.94;5072149;28;20048;-67
2023/02/27 06:08:31;;;;;;;3.17;1.85;;;;;;;16.13;38.99;100530.84;5072169;28;20052;-66
2023/02/27 06:11:00;;;;;;;3.97;1.48;;;;;;;16.08;39.05;100533.88;5072215;28;20051;-67
2023/02/27 06:13:29;;;;;;;3.63;1.90;;;;;;;16.06;38.98;100541.22;5071844;28;20471;-67
2023/02/27 06:15:58;;;;;;;4.18;1.88;;;;;;;16.00;38.75;100539.84;5071435;28;20489;-66
2023/02/27 06:18:26;;;;;;;3.40;1.88;;;;;;;15.98;38.80;100555.25;5071794;28;20059;-66
2023/02/27 06:20:54;;;;;;;3.42;1.70;;;;;;;15.92;39.07;100553.06;5071854;28;20044;-66
2023/02/27 06:23:23;;;;;;;3.17;1.88;;;;;;;15.87;38.98;100549.84;5073795;28;20709;-66
2023/02/27 06:25:51;;;;;;;3.88;1.92;;;;;;;15.83;39.03;100553.78;5071432;28;20464;-67
2023/02/27 06:28:20;;;;;;;3.40;1.92;;;;;;;15.80;39.06;100569.28;5071224;28;20421;-66
2023/02/27 06:30:52;;;;;;;3.60;1.77;;;;;;;15.74;39.13;100571.47;5068354;28;20489;-66
2023/02/27 06:33:21;;;;;;;4.50;2.10;;;;;;;15.71;39.00;100573.53;5071901;28;20079;-66
2023/02/27 06:35:50;;;;;;;3.30;1.90;;;;;;;15.68;38.76;100581.84;5071496;28;20048;-66
2023/02/27 06:38:18;;;;;;;3.63;2.00;;;;;;;15.66;38.20;100589.16;5052056;28;20056;-68
2023/02/27 06:40:46;;;;;;;4.47;2.00;;;;;;;15.62;38.11;100593.03;5071771;28;20036;-64
2023/02/27 06:43:14;;;;;;;4.40;1.80;;;;;;;15.59;38.41;100598.63;5071692;28;20107;-69
2023/02/27 06:45:42;;;;;;;4.63;1.90;;;;;;;15.55;38.49;100599.84;5071377;28;20478;-68
2023/02/27 06:48:11;;;;;;;3.42;1.90;;;;;;;15.52;38.54;100602.75;5071559;28;20154;-69
2023/02/27 06:50:41;;;;;;;3.47;1.90;;;;;;;15.47;38.68;100616.53;5071586;28;20052;-68
2023/02/27 06:53:09;;;;;;;3.80;1.90;;;;;;;15.46;38.94;100615.69;5071471;28;20131;-68
2023/02/27 06:55:37;;;;;;;4.72;1.98;;;;;;;15.42;38.85;100624.06;5071308;28;20123;-68
2023/02/27 06:58:05;;;;;;;5.93;2.08;;;;;;;15.40;39.07;100620.66;5071701;28;20048;-72
2023/02/27 07:00:33;;;;;;;3.85;1.80;;;;;;;15.36;39.24;100620.03;5072222;28;20045;-69
2023/02/27 07:03:03;;;;;;;3.50;1.90;;;;;;;15.34;39.27;100623.78;5072452;28;20515;-69
2023/02/27 07:05:31;;;;;;;3.60;1.90;;;;;;;15.32;39.29;100631.09;5073401;28;20044;-68
2023/02/27 07:08:02;;;;;;;4.10;2.00;;;;;;;15.28;38.96;100622.44;5072175;28;20408;-69
2023/02/27 07:10:33;;;;;;;3.78;1.98;;;;;;;15.27;38.97;100633.28;5071475;28;20049;-69
2023/02/27 07:13:02;;;;;;;4.10;1.90;;;;;;;15.24;38.82;100642.41;5072053;28;20059;-68
2023/02/27 07:15:30;;;;;;;4.53;1.98;;;;;;;15.21;39.17;100633.72;5071654;28;20127;-66
2023/02/27 07:17:58;;;;;;;3.38;1.67;;;;;;;15.18;39.42;100633.00;5071636;28;20098;-68
2023/02/27 07:20:27;;;;;;;3.63;1.70;;;;;;;15.14;39.50;100633.31;5071589;28;20040;-67
2023/02/27 07:22:55;;;;;;;4.25;1.90;;;;;;;15.15;39.45;100637.72;5072550;28;20048;-66
2023/02/27 07:25:25;;;;;;;3.10;1.70;;;;;;;15.10;39.54;100642.59;5071412;28;20052;-67
2023/02/27 07:27:53;;;;;;;3.20;1.70;;;;;;;15.10;39.67;100645.28;5072499;28;20044;-67
2023/02/27 07:30:21;;;;;;;3.28;1.80;;;;;;;15.05;39.55;100642.91;5075347;28;20054;-69
2023/02/27 07:32:50;;;;;;;4.25;1.75;;;;;;;15.05;39.68;100650.09;5075242;28;20048;-68
2023/02/27 07:35:18;;;;;;;3.95;2.00;;;;;;;15.02;39.76;100644.97;5074929;28;20052;-67
2023/02/27 07:37:47;;;;;;;3.67;1.90;;;;;;;15.01;39.72;100651.31;5074768;28;20064;-67
2023/02/27 07:40:15;;;;;;;3.50;1.80;;;;;;;14.98;39.84;100649.72;5075080;28;20094;-67
2023/02/27 07:42:47;;;;;;;5.13;1.95;;;;;;;14.98;39.78;100656.91;5075014;28;20040;-67
2023/02/27 07:45:17;;;;;;;3.20;1.80;;;;;;;14.95;39.82;100662.47;5074670;28;20580;-67
2023/02/27 07:47:45;;;;;;;3.38;1.90;;;;;;;14.93;39.96;100664.44;5074913;28;20637;-68
2023/02/27 07:50:13;;;;;;;4.20;2.00;;;;;;;14.93;39.73;100670.66;5073369;28;20072;-68
2023/02/27 07:52:42;;;;;;;3.78;1.95;;;;;;;14.91;39.47;100661.00;5074666;28;20072;-68
2023/02/27 07:55:12;;;;;;;3.95;1.83;;;;;;;14.95;39.82;100667.84;5073708;28;20055;-68
2023/02/27 07:57:41;;;;;;;4.57;1.90;;;;;;;14.98;40.03;100668.50;5074653;28;20103;-69
2023/02/27 08:00:12;;;;;;;5.47;1.90;;;;;;;15.05;40.27;100664.38;5073472;28;20045;-69
2023/02/27 08:02:40;;;;;;;6.75;1.90;;;;;;;15.13;40.42;100674.59;5074535;28;20044;-69
2023/02/27 08:05:09;;;;;;;4.35;1.95;;;;;;;15.23;40.54;100681.00;5074515;28;20470;-68
2023/02/27 08:07:37;;;;;;;4.03;2.10;;;;;;;15.31;40.34;100670.56;5074745;28;20053;-68
2023/02/27 08:10:06;;;;;;;4.15;2.00;;;;;;;15.35;40.14;100665.84;5074374;28;20464;-68
2023/02/27 08:12:34;;;;;;;5.18;2.05;;;;;;;15.39;40.13;100670.88;5074466;28;20078;-68
2023/02/27 08:15:03;;;;;;;4.20;2.03;;;;;;;15.40;40.10;100680.66;5074486;28;20070;-68
2023/02/27 08:17:33;;;;;;;4.80;1.75;;;;;;;15.42;40.25;100678.69;5074156;28;20054;-68
2023/02/27 08:20:01;;;;;;;4.63;1.90;;;;;;;15.44;40.20;100678.56;5074493;28;20051;-68
2023/02/27 08:22:30;;;;;;;5.07;2.03;;;;;;;15.43;40.20;100685.78;5074289;28;20462;-68
2023/02/27 08:24:59;;;;;;;4.40;2.13;;;;;;;15.44;40.38;100686.66;5074394;28;20044;-68
2023/02/27 08:27:27;;;;;;;4.03;1.90;;;;;;;15.42;40.34;100689.44;5074230;28;20067;-69
2023/02/27 08:29:57;;;;;;;6.63;2.22;;;;;;;15.43;40.24;100699.22;5073971;28;20050;-69
2023/02/27 08:32:26;;;;;;;3.70;1.85;;;;;;;15.41;40.52;100706.56;5074194;28;20041;-67
2023/02/27 08:34:55;;;;;;;3.92;1.83;;;;;;;15.42;40.89;100715.47;5073914;28;20097;-68
2023/02/27 08:37:26;;;;;;;3.25;1.77;;;;;;;15.39;40.91;100719.25;5073998;28;20064;-69
2023/02/27 08:39:55;;;;;;;5.55;2.03;;;;;;;15.36;40.36;100711.41;5072946;28;20048;-68
2023/02/27 08:42:23;;;;;;;4.20;2.33;;;;;;;15.37;40.40;100723.03;5073987;28;20048;-68
2023/02/27 08:44:56;;;;;;;3.60;1.90;;;;;;;15.34;40.37;100724.09;5074040;28;20458;-68
2023/02/27 08:47:27;;;;;;;3.55;1.75;;;;;;;15.34;40.19;100726.78;5072782;28;20073;-68
2023/02/27 08:50:00;;;;;;;3.47;1.85;;;;;;;15.32;39.65;100736.78;5073738;28;20124;-69
2023/02/27 08:52:28;;;;;;;4.32;2.10;;;;;;;15.31;39.97;100739.59;5073881;28;20127;-68
2023/02/27 08:54:56;;;;;;;4.05;2.00;;;;;;;15.29;39.68;100736.16;5073452;28;20049;-69
2023/02/27 08:57:24;;;;;;;3.60;1.95;;;;;;;15.25;39.76;100732.84;5073855;28;20048;-68
2023/02/27 08:59:53;;;;;;;4.03;1.90;;;;;;;15.28;39.71;100745.19;5073674;28;20072;-69
2023/02/27 09:02:24;;;;;;;3.97;1.95;;;;;;;15.25;39.62;100746.28;5073860;28;20221;-68
2023/02/27 09:04:56;;;;;;;4.18;2.33;;;;;;;15.26;39.39;100749.81;5073101;28;20101;-68
2023/02/27 09:07:28;;;;;;;4.43;1.95;;;;;;;15.24;39.33;100749.91;5073463;28;20067;-70
2023/02/27 09:09:57;;;;;;;4.13;1.85;;;;;;;15.23;39.90;100750.88;5073311;28;20082;-68
2023/02/27 09:12:25;;;;;;;4.15;1.90;;;;;;;15.19;39.69;100744.03;5073390;28;20044;-68
2023/02/27 09:14:53;;;;;;;4.05;1.95;;;;;;;15.21;39.60;100754.66;5073669;28;20044;-68
2023/02/27 09:17:21;;;;;;;4.88;2.05;;;;;;;15.20;39.65;100744.88;5073585;28;20044;-68
2023/02/27 09:19:50;;;;;;;4.57;1.85;;;;;;;15.18;39.94;100742.31;5073319;28;20075;-68
2023/02/27 09:22:18;;;;;;;4.70;2.03;;;;;;;15.16;39.90;100744.25;5073197;28;20044;-68
2023/02/27 09:24:48;;;;;;;5.65;2.10;;;;;;;15.17;39.96;100754.03;5073244;28;20051;-68
2023/02/27 09:27:16;;;;;;;4.60;1.83;;;;;;;15.16;39.96;100750.47;5073322;28;20048;-69
2023/02/27 09:29:44;;;;;;;5.93;2.00;;;;;;;15.15;40.13;100756.81;5073007;28;20040;-70
2023/02/27 09:32:16;;;;;;;3.67;2.10;;;;;;;15.15;39.85;100769.38;5073002;28;20044;-68
2023/02/27 09:34:44;;;;;;;4.18;2.05;;;;;;;15.14;39.98;100757.78;5072966;28;20119;-67
2023/02/27 09:37:12;;;;;;;3.72;1.80;;;;;;;15.13;40.08;100765.94;5072613;28;20113;-68
2023/02/27 09:39:42;;;;;;;5.45;2.28;;;;;;;15.13;39.88;100764.13;5072648;28;20047;-68
2023/02/27 09:42:19;;;;;;;4.90;2.00;;;;;;;15.11;39.85;100757.13;5072576;28;20056;-68
2023/02/27 09:44:51;;;;;;;3.85;1.98;;;;;;;15.12;39.89;100761.53;5072583;28;20037;-67
2023/02/27 09:47:24;;;;;;;3.60;1.80;;;;;;;15.11;39.74;100765.19;5072614;28;20524;-68
2023/02/27 09:50:00;;;;;;;3.63;1.85;;;;;;;15.09;39.57;100754.56;5072585;28;20040;-68
2023/02/27 09:52:31;;;;;;;4.18;1.75;;;;;;;15.09;39.66;100761.78;5072566;28;20048;-68
2023/02/27 09:54:59;;;;;;;4.85;2.00;;;;;;;15.09;39.71;100764.47;5072553;28;20048;-68
2023/02/27 09:57:40;;;;;;;3.65;1.90;;;;;;;15.08;39.87;100766.28;5072546;28;20044;-67
2023/02/27 10:00:26;;;;;;;4.05;2.08;;;;;;;15.07;39.68;100763.72;5072501;28;20049;-68
2023/02/27 10:03:05;;;;;;;3.00;1.67;;;;;;;15.08;39.74;100766.28;5072457;28;20040;-68
2023/02/27 10:05:41;;;;;;;3.58;1.90;;;;;;;15.08;39.81;100771.66;5072419;28;20119;-69
2023/02/27 10:08:18;;;;;;;4.38;2.10;;;;;;;15.09;39.64;100776.06;5073195;28;20305;-69
2023/02/27 10:10:53;;;;;;;4.07;2.15;;;;;;;15.10;39.70;100768.84;5072906;28;20044;-69
2023/02/27 10:13:47;;;;;;;2.97;1.90;;;;;;;15.10;39.70;100766.16;5072347;28;20063;-68
2023/02/27 10:16:19;;;;;;;3.72;2.03;;;;;;;15.11;39.93;100767.88;5072220;28;20056;-68
2023/02/27 10:18:53;;;;;;;4.80;2.07;;;;;;;15.10;39.74;100776.91;5072387;28;20406;-69
2023/02/27 10:21:29;;;;;;;3.45;1.90;;;;;;;15.10;39.79;100768.84;5072430;28;20366;-68
2023/02/27 10:24:06;;;;;;;4.50;2.00;;;;;;;15.11;39.88;100771.44;5072151;28;20050;-67
2023/02/27 10:26:38;;;;;;;3.83;1.75;;;;;;;15.09;39.72;100767.13;5072184;28;20053;-68
2023/02/27 10:29:18;;;;;;;3.85;2.13;;;;;;;15.10;39.89;100764.34;5072010;28;20116;-68
2023/02/27 10:31:53;;;;;;;4.47;1.90;;;;;;;15.15;39.78;100761.31;5072141;28;20048;-68
2023/02/27 10:34:23;;;;;;;4.13;2.00;;;;;;;15.15;39.42;100766.69;5071935;28;20044;-68
2023/02/27 10:36:52;;;;;;;4.03;1.80;;;;;;;15.16;39.58;100766.59;5071987;28;20051;-68
2023/02/27 10:39:22;;;;;;;5.00;2.03;;;;;;;15.19;39.53;100768.22;5072042;28;20055;-68
2023/02/27 10:41:51;;;;;;;4.00;1.80;;;;;;;15.19;39.71;100768.22;5071994;28;20493;-68
2023/02/27 10:44:23;;;;;;;5.30;1.95;;;;;;;15.20;39.79;100766.38;5071907;28;20127;-68
2023/02/27 10:46:54;;;;;;;3.72;1.77;;;;;;;15.19;39.83;100762.84;5071841;28;20135;-68
2023/02/27 10:49:23;;;;;;;4.70;2.10;;;;;;;15.20;39.69;100761.00;5072206;28;20040;-68
2023/02/27 10:52:07;;;;;;;4.68;2.10;;;;;;;15.18;39.63;100753.06;5071560;28;20044;-69
2023/02/27 10:54:35;;;;;;;4.82;2.03;;;;;;;15.20;39.26;100761.84;5071960;28;20175;-68
2023/02/27 10:57:18;;;;;;;4.10;2.08;;;;;;;15.19;39.39;100765.53;5071940;28;20072;-68
2023/02/27 10:59:54;;;;;;;4.70;2.20;;;;;;;15.19;38.97;100765.53;5072030;28;20048;-67
2023/02/27 11:02:26;;;;;;;6.05;2.00;;;;;;;15.21;39.06;100766.25;5071207;28;20555;-68
2023/02/27 11:04:56;;;;;;;3.72;1.90;;;;;;;15.22;38.89;100767.13;5071825;28;20123;-68
2023/02/27 11:07:33;;;;;;;3.88;2.10;;;;;;;15.24;39.24;100762.50;5071770;28;20377;-68
2023/02/27 11:10:16;;;;;;;5.13;2.00;;;;;;;15.24;38.92;100763.34;5071629;28;20063;-69
2023/02/27 11:12:59;;;;;;;4.97;2.17;;;;;;;15.26;39.30;100763.25;5071492;28;20133;-68
2023/02/27 11:15:31;;;;;;;3.35;1.90;;;;;;;15.28;39.49;100761.31;5071729;28;20457;-68
2023/02/27 11:18:20;;;;;;;4.47;2.00;;;;;;;15.30;39.81;100767.44;5071585;28;20049;-70
2023/02/27 11:20:50;;;;;;;3.17;1.70;;;;;;;15.32;39.81;100760.13;5071651;28;20045;-67
2023/02/27 11:23:22;;;;;;;3.13;1.73;;;;;;;15.33;39.89;100765.38;5071689;28;20048;-68
2023/02/27 11:25:51;;;;;;;3.60;2.10;;;;;;;15.33;39.89;100770.75;5071658;28;20076;-67
2023/02/27 11:28:27;;;;;;;4.10;1.80;;;;;;;15.35;39.89;100779.59;5071608;28;20041;-68
2023/02/27 11:31:00;;;;;;;4.40;2.15;;;;;;;15.36;39.89;100769.69;5070131;28;20053;-68
2023/02/27 11:33:33;;;;;;;3.80;1.92;;;;;;;15.34;39.91;100775.16;5071661;28;20048;-67
2023/02/27 11:36:02;;;;;;;3.45;1.88;;;;;;;15.36;39.77;100775.06;5071508;28;20041;-70
2023/02/27 11:38:33;;;;;;;3.65;1.83;;;;;;;15.36;39.86;100775.94;5071138;28;20078;-69
2023/02/27 11:41:03;;;;;;;3.60;2.03;;;;;;;15.37;39.61;100776.78;5071210;28;20064;-69
2023/02/27 11:43:34;;;;;;;3.78;2.03;;;;;;;15.38;39.65;100778.50;5071273;28;20371;-68
2023/02/27 11:46:08;;;;;;;4.97;2.20;;;;;;;15.38;39.66;100778.50;5071244;28;20124;-68
2023/02/27 11:49:01;;;;;;;;;;;;;;;15.38;39.78;100768.59;5071667;28;20045;-69
2023/02/27 11:51:46;;;;;;;4.50;2.17;;;;;;;15.41;39.50;100773.75;5071070;28;19950;-68